This is the latest recevied weather packets stored in our database for station/object LZ2SLL-13. If no packets are shown the sender has not sent any weather packets the latest 1 day(s).
| Time | Temp. | Humidity | Pressure | Rain* | Wind** | Luminosity | Snow |
|---|---|---|---|---|---|---|---|
| 1777995170 | 15° C | 66% | - | 0 mm | 1.34 m/s, 180° | 93 W/m² | - |
| 1777994869 | 15.56° C | 64% | - | 0 mm | 0.89 m/s, 120° | 182 W/m² | - |
| 1777994569 | 16.11° C | 59% | - | 0 mm | 0.45 m/s, 99° | 199 W/m² | - |
| 1777994268 | 15.56° C | 62% | - | 0 mm | 0.45 m/s, 158° | 205 W/m² | - |
| 1777993967 | 15.56° C | 59% | - | 0 mm | 1.34 m/s, 159° | 233 W/m² | - |
| 1777993667 | 15.56° C | 60% | - | 0 mm | 2.24 m/s, 174° | 252 W/m² | - |
| 1777993366 | 16.67° C | 54% | - | 0 mm | 0.89 m/s, 197° | 272 W/m² | - |
| 1777993065 | 16.67° C | 57% | - | 0 mm | 1.79 m/s, 170° | 290 W/m² | - |
| 1777992764 | 17.78° C | 56% | - | 0 mm | 0.45 m/s, 134° | 307 W/m² | - |
| 1777992464 | 16.67° C | 58% | - | 0 mm | 1.34 m/s, 170° | 325 W/m² | - |
| 1777992163 | 17.22° C | 57% | - | 0 mm | 1.34 m/s, 172° | 351 W/m² | - |
| 1777991862 | 17.22° C | 56% | - | 0 mm | 0.45 m/s, 150° | 362 W/m² | - |
| 1777991561 | 16.67° C | 57% | - | 0 mm | 0.89 m/s, 105° | 379 W/m² | - |
| 1777991261 | 17.22° C | 57% | - | 0 mm | 0.89 m/s, 146° | 398 W/m² | - |
| 1777990960 | 17.22° C | 59% | - | 0 mm | 0.89 m/s, 116° | 416 W/m² | - |
| 1777990659 | 16.67° C | 59% | - | 0 mm | 0.45 m/s, 176° | 436 W/m² | - |
| 1777990359 | 16.11° C | 61% | - | 0 mm | 1.34 m/s, 127° | 456 W/m² | - |
| 1777990058 | 16.11° C | 60% | - | 0 mm | 1.34 m/s, 83° | 474 W/m² | - |
| 1777989757 | 15.56° C | 62% | - | 0 mm | 0.89 m/s, 158° | 490 W/m² | - |
| 1777989457 | 15.56° C | 63% | - | 0 mm | 1.79 m/s, 95° | 510 W/m² | - |
| 1777989155 | 16.67° C | 61% | - | 0 mm | 1.34 m/s, 116° | 529 W/m² | - |
| 1777988854 | 17.78° C | 59% | - | 0 mm | 0.45 m/s, 145° | 545 W/m² | - |
| 1777988554 | 16.67° C | 59% | - | 0 mm | 0.89 m/s, 150° | 561 W/m² | - |
| 1777988253 | 15° C | 65% | - | 0 mm | 1.79 m/s, 180° | 580 W/m² | - |
| 1777987650 | 16.11° C | 60% | - | 0 mm | 1.34 m/s, 202° | 616 W/m² | - |
* Rain latest hour (hover to see other rain measurements)
** Current wind speed in m/s (hover to see current wind gust speed)